Terminal Aerodrome Forecast
Issued by NWS Portland, ME

Home | Current Version | Previous Version | Text Only | Print | Product List | Glossary On
Versions: 1 2 3 4 5 6 7 8 9 10 11 12 13 14 15
000
FTUS41 KGYX 301725
TAFPWM
TAF
KPWM 301725Z 3018/0118 02006KT P6SM OVC012
     FM010000 04003KT 3SM BR OVC005
     FM010200 01003KT 1 1/2SM BR OVC003
     FM011500 03012KT 5SM -SHRA BR OVC015=

USA.gov is the U.S. government's official web portal to all federal, state and local government web resources and services.